Hauptseite
METAR-TAF:

METAR-TAF

Flughäfen :

Ho-Chi-Minh-Stadt, Vietnam

Flughafen Tan-Son-Nhat

Breite: 10-49N, Länge: 106-40E, Höhe: 19 m

Beobachtung

Neuester Wetterbericht von vor 19 Minuten, um 16:00 UTC
Wind 6 kt aus Nord, variierte zwischen Nord und Nordost
Temperatur 23°C
Luftfeuchtigkeit 69%
Luftdruck 1013 hPa
Sichtweite 10 km oder mehr
Leicht bewölkt in der Höhe von 1700 ft

METAR: VVTS 181600Z 01006KT 350V050 9999 FEW017 23/17 Q1013 NOSIG

Zeit: 23:19 (16:19 UTC)

Prognose

Neuester Wetterbericht von vor 5 Stunden und 19 Minuten, um 11:00 UTC
Gültige Prognose vom 18 um 12 UTC bis 19 um 18 UTC
Wind 7 kt aus Nord/Nordwest
Sichtweite 10 km oder mehr
Leicht bewölkt in der Höhe von 2000 ft

TAF: VVTS 181100Z 1812/1918 34007KT 9999 FEW020

Wetterbeobachtungen und Prognosen von mehr als 4000 Flughäfen (METAR und TAF Bericht).

Die verfügbaren Stationen werden durch gelbe und rote Markierungen auf der Karte dargestellt.

Führen Sie die Maus auf sie, um den Namen der Station zu sehen.

Darauf klicken, um die Beobachtung von Wetterbeobachtungen und Prognosen zu sehen.

Um die Karte zu ändern : klicken Sie auf den grünen Tasten mit einem schwarzen Kreuz Zum Vergrößern, auf den grünen Button mit einem Gedankenstrich zu verkleinern, oder auf die grünen Pfeile für benachbarte Karten.


METAR-TAF: